sensor_id;sensor_type;location;lat;lon;timestamp;P1;durP1;ratioP1;P2;durP2;ratioP2
23232;SDS011;11785;49.500;8.288;2023-05-10T00:01:29;2.90;;;1.02;;
23232;SDS011;11785;49.500;8.288;2023-05-10T00:03:54;3.63;;;1.20;;
23232;SDS011;11785;49.500;8.288;2023-05-10T00:06:20;1.40;;;1.30;;
23232;SDS011;11785;49.500;8.288;2023-05-10T00:08:46;1.23;;;1.13;;
23232;SDS011;11785;49.500;8.288;2023-05-10T00:11:11;4.20;;;1.20;;
23232;SDS011;11785;49.500;8.288;2023-05-10T00:13:37;1.30;;;1.20;;
23232;SDS011;11785;49.500;8.288;2023-05-10T00:16:02;1.23;;;1.13;;
23232;SDS011;11785;49.500;8.288;2023-05-10T00:18:28;3.10;;;1.10;;
23232;SDS011;11785;49.500;8.288;2023-05-10T00:20:53;1.67;;;1.30;;
23232;SDS011;11785;49.500;8.288;2023-05-10T00:23:19;1.73;;;1.40;;
23232;SDS011;11785;49.500;8.288;2023-05-10T00:25:44;1.77;;;1.48;;
23232;SDS011;11785;49.500;8.288;2023-05-10T00:28:10;2.75;;;1.50;;
23232;SDS011;11785;49.500;8.288;2023-05-10T00:30:35;1.48;;;1.38;;
23232;SDS011;11785;49.500;8.288;2023-05-10T00:33:01;2.35;;;1.45;;
23232;SDS011;11785;49.500;8.288;2023-05-10T00:35:27;1.70;;;1.55;;
23232;SDS011;11785;49.500;8.288;2023-05-10T00:37:53;1.60;;;1.50;;
23232;SDS011;11785;49.500;8.288;2023-05-10T00:40:18;1.73;;;1.63;;
23232;SDS011;11785;49.500;8.288;2023-05-10T00:42:44;2.03;;;1.33;;
23232;SDS011;11785;49.500;8.288;2023-05-10T00:45:10;1.83;;;1.50;;
23232;SDS011;11785;49.500;8.288;2023-05-10T00:47:36;6.10;;;1.40;;
23232;SDS011;11785;49.500;8.288;2023-05-10T00:50:02;2.13;;;1.23;;
23232;SDS011;11785;49.500;8.288;2023-05-10T00:52:29;2.97;;;1.42;;
23232;SDS011;11785;49.500;8.288;2023-05-10T00:54:55;1.58;;;1.25;;
23232;SDS011;11785;49.500;8.288;2023-05-10T00:57:21;2.72;;;1.50;;
23232;SDS011;11785;49.500;8.288;2023-05-10T00:59:47;3.90;;;1.50;;
23232;SDS011;11785;49.500;8.288;2023-05-10T01:02:13;1.60;;;1.30;;
23232;SDS011;11785;49.500;8.288;2023-05-10T01:04:39;1.52;;;1.42;;
23232;SDS011;11785;49.500;8.288;2023-05-10T01:07:05;1.60;;;1.25;;
23232;SDS011;11785;49.500;8.288;2023-05-10T01:09:31;1.63;;;1.52;;
23232;SDS011;11785;49.500;8.288;2023-05-10T01:11:59;1.50;;;1.40;;
23232;SDS011;11785;49.500;8.288;2023-05-10T01:14:26;1.35;;;1.25;;
23232;SDS011;11785;49.500;8.288;2023-05-10T01:16:52;1.48;;;1.38;;
23232;SDS011;11785;49.500;8.288;2023-05-10T01:19:19;1.42;;;1.33;;
23232;SDS011;11785;49.500;8.288;2023-05-10T01:27:19;2.15;;;1.27;;
23232;SDS011;11785;49.500;8.288;2023-05-10T01:38:22;2.17;;;1.45;;
23232;SDS011;11785;49.500;8.288;2023-05-10T01:41:33;2.17;;;1.40;;
23232;SDS011;11785;49.500;8.288;2023-05-10T01:47:15;2.03;;;1.38;;
23232;SDS011;11785;49.500;8.288;2023-05-10T01:49:45;1.60;;;1.50;;
23232;SDS011;11785;49.500;8.288;2023-05-10T01:52:16;1.60;;;1.40;;
23232;SDS011;11785;49.500;8.288;2023-05-10T01:54:52;2.40;;;1.40;;
23232;SDS011;11785;49.500;8.288;2023-05-10T01:57:21;1.65;;;1.55;;
23232;SDS011;11785;49.500;8.288;2023-05-10T01:59:49;2.03;;;1.50;;
23232;SDS011;11785;49.500;8.288;2023-05-10T02:02:16;1.92;;;1.80;;
23232;SDS011;11785;49.500;8.288;2023-05-10T02:04:44;3.50;;;1.77;;
23232;SDS011;11785;49.500;8.288;2023-05-10T02:07:12;2.65;;;1.23;;
23232;SDS011;11785;49.500;8.288;2023-05-10T02:09:39;3.45;;;1.80;;
23232;SDS011;11785;49.500;8.288;2023-05-10T02:12:06;1.85;;;1.75;;
23232;SDS011;11785;49.500;8.288;2023-05-10T02:14:34;1.92;;;1.70;;
23232;SDS011;11785;49.500;8.288;2023-05-10T02:17:02;2.05;;;1.73;;
23232;SDS011;11785;49.500;8.288;2023-05-10T02:19:30;2.88;;;1.42;;
23232;SDS011;11785;49.500;8.288;2023-05-10T02:21:57;2.22;;;1.80;;
23232;SDS011;11785;49.500;8.288;2023-05-10T02:24:25;1.65;;;1.42;;
23232;SDS011;11785;49.500;8.288;2023-05-10T02:26:51;1.50;;;1.40;;
23232;SDS011;11785;49.500;8.288;2023-05-10T02:29:20;1.40;;;1.30;;
23232;SDS011;11785;49.500;8.288;2023-05-10T02:31:48;1.48;;;1.38;;
23232;SDS011;11785;49.500;8.288;2023-05-10T02:34:16;3.10;;;1.30;;
23232;SDS011;11785;49.500;8.288;2023-05-10T02:36:42;2.58;;;1.60;;
23232;SDS011;11785;49.500;8.288;2023-05-10T02:39:08;2.08;;;1.50;;
23232;SDS011;11785;49.500;8.288;2023-05-10T02:41:37;6.60;;;1.55;;
23232;SDS011;11785;49.500;8.288;2023-05-10T02:44:05;1.90;;;1.80;;
23232;SDS011;11785;49.500;8.288;2023-05-10T02:46:32;4.03;;;1.50;;
23232;SDS011;11785;49.500;8.288;2023-05-10T02:48:58;2.13;;;1.50;;
23232;SDS011;11785;49.500;8.288;2023-05-10T02:51:24;1.60;;;1.50;;
23232;SDS011;11785;49.500;8.288;2023-05-10T02:53:53;1.50;;;1.40;;
23232;SDS011;11785;49.500;8.288;2023-05-10T02:56:23;1.92;;;1.60;;
23232;SDS011;11785;49.500;8.288;2023-05-10T03:01:19;1.98;;;1.80;;
23232;SDS011;11785;49.500;8.288;2023-05-10T03:03:45;2.35;;;1.88;;
23232;SDS011;11785;49.500;8.288;2023-05-10T03:06:10;2.45;;;1.98;;
23232;SDS011;11785;49.500;8.288;2023-05-10T03:08:36;1.98;;;1.80;;
23232;SDS011;11785;49.500;8.288;2023-05-10T03:14:02;2.00;;;1.77;;
23232;SDS011;11785;49.500;8.288;2023-05-10T03:16:44;5.97;;;1.88;;
23232;SDS011;11785;49.500;8.288;2023-05-10T03:19:16;2.00;;;1.90;;
23232;SDS011;11785;49.500;8.288;2023-05-10T03:21:49;4.93;;;1.60;;
23232;SDS011;11785;49.500;8.288;2023-05-10T03:24:16;3.00;;;1.88;;
23232;SDS011;11785;49.500;8.288;2023-05-10T03:26:45;1.90;;;1.65;;
23232;SDS011;11785;49.500;8.288;2023-05-10T03:29:11;3.22;;;1.70;;
23232;SDS011;11785;49.500;8.288;2023-05-10T03:31:39;3.75;;;1.88;;
23232;SDS011;11785;49.500;8.288;2023-05-10T03:34:04;3.88;;;1.48;;
23232;SDS011;11785;49.500;8.288;2023-05-10T03:36:31;2.30;;;1.70;;
23232;SDS011;11785;49.500;8.288;2023-05-10T03:38:56;2.22;;;1.60;;
23232;SDS011;11785;49.500;8.288;2023-05-10T03:41:22;2.25;;;1.80;;
23232;SDS011;11785;49.500;8.288;2023-05-10T03:43:47;1.73;;;1.63;;
23232;SDS011;11785;49.500;8.288;2023-05-10T03:46:13;2.58;;;1.75;;
23232;SDS011;11785;49.500;8.288;2023-05-10T03:48:39;4.00;;;1.55;;
23232;SDS011;11785;49.500;8.288;2023-05-10T03:51:04;2.28;;;1.90;;
23232;SDS011;11785;49.500;8.288;2023-05-10T03:53:30;3.00;;;1.92;;
23232;SDS011;11785;49.500;8.288;2023-05-10T03:55:55;3.20;;;2.03;;
23232;SDS011;11785;49.500;8.288;2023-05-10T03:58:21;2.25;;;1.85;;
23232;SDS011;11785;49.500;8.288;2023-05-10T04:00:47;3.80;;;1.90;;
23232;SDS011;11785;49.500;8.288;2023-05-10T04:03:12;5.00;;;1.88;;
23232;SDS011;11785;49.500;8.288;2023-05-10T04:05:38;2.97;;;2.55;;
23232;SDS011;11785;49.500;8.288;2023-05-10T04:08:04;2.30;;;2.10;;
23232;SDS011;11785;49.500;8.288;2023-05-10T04:10:30;3.33;;;2.58;;
23232;SDS011;11785;49.500;8.288;2023-05-10T04:12:56;5.78;;;2.15;;
23232;SDS011;11785;49.500;8.288;2023-05-10T04:15:22;2.42;;;2.20;;
23232;SDS011;11785;49.500;8.288;2023-05-10T04:17:47;5.32;;;2.53;;
23232;SDS011;11785;49.500;8.288;2023-05-10T04:20:13;2.92;;;2.72;;
23232;SDS011;11785;49.500;8.288;2023-05-10T04:22:39;3.67;;;2.83;;
23232;SDS011;11785;49.500;8.288;2023-05-10T04:25:05;3.53;;;2.75;;
23232;SDS011;11785;49.500;8.288;2023-05-10T04:27:31;4.68;;;2.60;;
23232;SDS011;11785;49.500;8.288;2023-05-10T04:29:57;5.82;;;3.20;;
23232;SDS011;11785;49.500;8.288;2023-05-10T04:32:23;4.20;;;2.78;;
23232;SDS011;11785;49.500;8.288;2023-05-10T04:34:48;5.47;;;2.85;;
23232;SDS011;11785;49.500;8.288;2023-05-10T04:37:16;5.25;;;2.78;;
23232;SDS011;11785;49.500;8.288;2023-05-10T04:39:41;8.48;;;3.08;;
23232;SDS011;11785;49.500;8.288;2023-05-10T04:42:07;4.25;;;2.90;;
23232;SDS011;11785;49.500;8.288;2023-05-10T04:44:33;4.85;;;2.97;;
23232;SDS011;11785;49.500;8.288;2023-05-10T04:46:58;3.00;;;2.60;;
23232;SDS011;11785;49.500;8.288;2023-05-10T04:49:24;3.28;;;2.80;;
23232;SDS011;11785;49.500;8.288;2023-05-10T04:51:50;4.38;;;3.35;;
23232;SDS011;11785;49.500;8.288;2023-05-10T04:54:15;4.75;;;3.15;;
23232;SDS011;11785;49.500;8.288;2023-05-10T04:56:41;3.55;;;3.25;;
23232;SDS011;11785;49.500;8.288;2023-05-10T04:59:07;6.07;;;3.38;;
23232;SDS011;11785;49.500;8.288;2023-05-10T05:01:32;3.80;;;3.50;;
23232;SDS011;11785;49.500;8.288;2023-05-10T05:03:58;5.55;;;3.38;;
23232;SDS011;11785;49.500;8.288;2023-05-10T05:06:24;4.38;;;3.13;;
23232;SDS011;11785;49.500;8.288;2023-05-10T05:08:50;3.45;;;3.15;;
23232;SDS011;11785;49.500;8.288;2023-05-10T05:11:16;7.10;;;3.22;;
23232;SDS011;11785;49.500;8.288;2023-05-10T05:13:42;5.88;;;3.30;;
23232;SDS011;11785;49.500;8.288;2023-05-10T05:16:07;4.28;;;3.03;;
23232;SDS011;11785;49.500;8.288;2023-05-10T05:18:33;3.90;;;3.00;;
23232;SDS011;11785;49.500;8.288;2023-05-10T05:20:58;4.63;;;3.00;;
23232;SDS011;11785;49.500;8.288;2023-05-10T05:23:24;4.07;;;2.70;;
23232;SDS011;11785;49.500;8.288;2023-05-10T05:25:51;3.90;;;2.92;;
23232;SDS011;11785;49.500;8.288;2023-05-10T05:28:17;6.80;;;3.10;;
23232;SDS011;11785;49.500;8.288;2023-05-10T05:30:43;4.38;;;2.50;;
23232;SDS011;11785;49.500;8.288;2023-05-10T05:33:08;4.68;;;2.97;;
23232;SDS011;11785;49.500;8.288;2023-05-10T05:35:34;4.68;;;2.60;;
23232;SDS011;11785;49.500;8.288;2023-05-10T05:37:59;2.60;;;2.40;;
23232;SDS011;11785;49.500;8.288;2023-05-10T05:40:25;3.17;;;2.90;;
23232;SDS011;11785;49.500;8.288;2023-05-10T05:42:50;5.57;;;2.75;;
23232;SDS011;11785;49.500;8.288;2023-05-10T05:45:16;4.57;;;2.50;;
23232;SDS011;11785;49.500;8.288;2023-05-10T05:47:41;2.42;;;2.22;;
23232;SDS011;11785;49.500;8.288;2023-05-10T05:50:07;3.33;;;2.20;;
23232;SDS011;11785;49.500;8.288;2023-05-10T05:52:33;2.08;;;1.92;;
23232;SDS011;11785;49.500;8.288;2023-05-10T05:54:59;2.53;;;1.77;;
23232;SDS011;11785;49.500;8.288;2023-05-10T05:57:25;1.85;;;1.60;;
23232;SDS011;11785;49.500;8.288;2023-05-10T05:59:51;5.72;;;1.60;;
23232;SDS011;11785;49.500;8.288;2023-05-10T06:02:17;2.17;;;1.60;;
23232;SDS011;11785;49.500;8.288;2023-05-10T06:04:42;2.17;;;1.70;;
23232;SDS011;11785;49.500;8.288;2023-05-10T06:07:08;3.13;;;1.58;;
23232;SDS011;11785;49.500;8.288;2023-05-10T06:09:33;2.45;;;1.67;;
23232;SDS011;11785;49.500;8.288;2023-05-10T06:11:59;2.35;;;1.50;;
23232;SDS011;11785;49.500;8.288;2023-05-10T06:14:25;1.60;;;1.50;;
23232;SDS011;11785;49.500;8.288;2023-05-10T06:16:50;1.98;;;1.70;;
23232;SDS011;11785;49.500;8.288;2023-05-10T06:19:16;1.60;;;1.50;;
23232;SDS011;11785;49.500;8.288;2023-05-10T06:21:41;1.83;;;1.52;;
23232;SDS011;11785;49.500;8.288;2023-05-10T06:24:07;2.95;;;1.55;;
23232;SDS011;11785;49.500;8.288;2023-05-10T06:26:33;3.13;;;1.35;;
23232;SDS011;11785;49.500;8.288;2023-05-10T06:28:58;1.40;;;1.30;;
23232;SDS011;11785;49.500;8.288;2023-05-10T06:31:24;1.67;;;1.40;;
23232;SDS011;11785;49.500;8.288;2023-05-10T06:33:49;2.97;;;1.42;;
23232;SDS011;11785;49.500;8.288;2023-05-10T06:36:15;1.20;;;1.10;;
23232;SDS011;11785;49.500;8.288;2023-05-10T06:38:41;1.10;;;1.10;;
23232;SDS011;11785;49.500;8.288;2023-05-10T06:41:06;1.35;;;1.13;;
23232;SDS011;11785;49.500;8.288;2023-05-10T06:43:33;4.25;;;1.20;;
23232;SDS011;11785;49.500;8.288;2023-05-10T06:45:58;6.82;;;1.20;;
23232;SDS011;11785;49.500;8.288;2023-05-10T06:48:24;3.03;;;1.20;;
23232;SDS011;11785;49.500;8.288;2023-05-10T06:50:49;0.90;;;0.90;;
23232;SDS011;11785;49.500;8.288;2023-05-10T06:53:15;1.65;;;1.05;;
23232;SDS011;11785;49.500;8.288;2023-05-10T06:55:41;1.98;;;1.40;;
23232;SDS011;11785;49.500;8.288;2023-05-10T06:58:06;1.77;;;1.00;;
23232;SDS011;11785;49.500;8.288;2023-05-10T07:00:32;2.17;;;1.08;;
23232;SDS011;11785;49.500;8.288;2023-05-10T07:02:57;1.20;;;0.90;;
23232;SDS011;11785;49.500;8.288;2023-05-10T07:05:23;1.58;;;1.00;;
23232;SDS011;11785;49.500;8.288;2023-05-10T07:07:49;0.88;;;0.88;;
23232;SDS011;11785;49.500;8.288;2023-05-10T07:10:15;6.38;;;1.20;;
23232;SDS011;11785;49.500;8.288;2023-05-10T07:12:40;1.70;;;1.13;;
23232;SDS011;11785;49.500;8.288;2023-05-10T07:15:06;1.10;;;1.05;;
23232;SDS011;11785;49.500;8.288;2023-05-10T07:17:32;1.30;;;1.20;;
23232;SDS011;11785;49.500;8.288;2023-05-10T07:19:58;1.75;;;1.10;;
23232;SDS011;11785;49.500;8.288;2023-05-10T07:22:25;1.20;;;1.10;;
23232;SDS011;11785;49.500;8.288;2023-05-10T07:24:50;1.88;;;1.20;;
23232;SDS011;11785;49.500;8.288;2023-05-10T07:27:16;1.15;;;1.05;;
23232;SDS011;11785;49.500;8.288;2023-05-10T07:29:41;2.72;;;1.02;;
23232;SDS011;11785;49.500;8.288;2023-05-10T07:32:07;1.40;;;0.90;;
23232;SDS011;11785;49.500;8.288;2023-05-10T07:34:32;0.82;;;0.70;;
23232;SDS011;11785;49.500;8.288;2023-05-10T07:36:58;0.98;;;0.80;;
23232;SDS011;11785;49.500;8.288;2023-05-10T07:39:24;2.13;;;0.80;;
23232;SDS011;11785;49.500;8.288;2023-05-10T07:41:50;1.77;;;1.10;;
23232;SDS011;11785;49.500;8.288;2023-05-10T07:44:16;1.48;;;0.80;;
23232;SDS011;11785;49.500;8.288;2023-05-10T07:46:44;1.40;;;0.90;;
23232;SDS011;11785;49.500;8.288;2023-05-10T07:49:09;10.38;;;1.27;;
23232;SDS011;11785;49.500;8.288;2023-05-10T07:51:35;0.82;;;0.70;;
23232;SDS011;11785;49.500;8.288;2023-05-10T07:54:00;1.67;;;0.80;;
23232;SDS011;11785;49.500;8.288;2023-05-10T07:56:28;1.48;;;0.77;;
23232;SDS011;11785;49.500;8.288;2023-05-10T07:58:57;1.60;;;0.85;;
23232;SDS011;11785;49.500;8.288;2023-05-10T08:01:24;1.77;;;0.70;;
23232;SDS011;11785;49.500;8.288;2023-05-10T08:03:50;0.70;;;0.70;;
23232;SDS011;11785;49.500;8.288;2023-05-10T08:06:18;1.13;;;0.68;;
23232;SDS011;11785;49.500;8.288;2023-05-10T08:08:47;1.52;;;0.60;;
23232;SDS011;11785;49.500;8.288;2023-05-10T08:11:18;2.75;;;0.77;;
23232;SDS011;11785;49.500;8.288;2023-05-10T08:13:45;1.95;;;0.70;;
23232;SDS011;11785;49.500;8.288;2023-05-10T08:16:11;1.00;;;0.88;;
23232;SDS011;11785;49.500;8.288;2023-05-10T08:18:37;0.90;;;0.80;;
23232;SDS011;11785;49.500;8.288;2023-05-10T08:21:04;1.85;;;0.77;;
23232;SDS011;11785;49.500;8.288;2023-05-10T08:23:29;1.25;;;0.90;;
23232;SDS011;11785;49.500;8.288;2023-05-10T08:25:55;1.50;;;0.70;;
23232;SDS011;11785;49.500;8.288;2023-05-10T08:28:20;3.80;;;0.70;;
23232;SDS011;11785;49.500;8.288;2023-05-10T08:30:46;0.80;;;0.80;;
23232;SDS011;11785;49.500;8.288;2023-05-10T08:33:11;1.05;;;0.95;;
23232;SDS011;11785;49.500;8.288;2023-05-10T08:35:37;1.35;;;1.00;;
23232;SDS011;11785;49.500;8.288;2023-05-10T08:38:02;2.33;;;0.90;;
23232;SDS011;11785;49.500;8.288;2023-05-10T08:40:28;1.02;;;1.00;;
23232;SDS011;11785;49.500;8.288;2023-05-10T08:42:55;2.63;;;1.00;;
23232;SDS011;11785;49.500;8.288;2023-05-10T08:47:56;1.33;;;1.13;;
23232;SDS011;11785;49.500;8.288;2023-05-10T08:50:23;1.33;;;0.95;;
23232;SDS011;11785;49.500;8.288;2023-05-10T08:52:50;2.97;;;1.00;;
23232;SDS011;11785;49.500;8.288;2023-05-10T08:55:17;1.58;;;1.00;;
23232;SDS011;11785;49.500;8.288;2023-05-10T08:57:43;1.85;;;1.02;;
23232;SDS011;11785;49.500;8.288;2023-05-10T09:00:09;2.95;;;0.90;;
23232;SDS011;11785;49.500;8.288;2023-05-10T09:02:36;1.25;;;0.82;;
23232;SDS011;11785;49.500;8.288;2023-05-10T09:05:02;1.80;;;0.73;;
23232;SDS011;11785;49.500;8.288;2023-05-10T09:07:29;1.23;;;0.80;;
23232;SDS011;11785;49.500;8.288;2023-05-10T09:09:55;5.68;;;0.90;;
23232;SDS011;11785;49.500;8.288;2023-05-10T09:12:22;1.02;;;0.60;;
23232;SDS011;11785;49.500;8.288;2023-05-10T09:14:48;2.05;;;0.80;;
23232;SDS011;11785;49.500;8.288;2023-05-10T09:17:16;1.10;;;0.80;;
23232;SDS011;11785;49.500;8.288;2023-05-10T09:19:42;1.08;;;0.80;;
23232;SDS011;11785;49.500;8.288;2023-05-10T09:22:09;0.77;;;0.77;;
23232;SDS011;11785;49.500;8.288;2023-05-10T09:24:35;1.08;;;0.95;;
23232;SDS011;11785;49.500;8.288;2023-05-10T09:27:01;3.45;;;0.60;;
23232;SDS011;11785;49.500;8.288;2023-05-10T09:29:38;1.17;;;0.65;;
23232;SDS011;11785;49.500;8.288;2023-05-10T09:32:07;1.15;;;0.70;;
23232;SDS011;11785;49.500;8.288;2023-05-10T09:34:33;2.95;;;0.70;;
23232;SDS011;11785;49.500;8.288;2023-05-10T09:37:01;0.70;;;0.70;;
23232;SDS011;11785;49.500;8.288;2023-05-10T09:39:35;0.95;;;0.90;;
23232;SDS011;11785;49.500;8.288;2023-05-10T09:42:06;2.25;;;0.60;;
23232;SDS011;11785;49.500;8.288;2023-05-10T09:44:33;1.23;;;0.60;;
23232;SDS011;11785;49.500;8.288;2023-05-10T09:47:03;2.70;;;0.80;;
23232;SDS011;11785;49.500;8.288;2023-05-10T09:49:29;3.08;;;0.60;;
23232;SDS011;11785;49.500;8.288;2023-05-10T09:52:01;1.35;;;1.25;;
23232;SDS011;11785;49.500;8.288;2023-05-10T09:56:53;1.85;;;1.10;;
23232;SDS011;11785;49.500;8.288;2023-05-10T09:59:19;1.40;;;1.20;;
23232;SDS011;11785;49.500;8.288;2023-05-10T10:01:51;2.65;;;1.30;;
23232;SDS011;11785;49.500;8.288;2023-05-10T10:04:17;2.17;;;1.30;;
23232;SDS011;11785;49.500;8.288;2023-05-10T10:06:44;2.00;;;1.20;;
23232;SDS011;11785;49.500;8.288;2023-05-10T10:09:10;1.38;;;1.10;;
23232;SDS011;11785;49.500;8.288;2023-05-10T10:11:36;1.17;;;1.00;;
23232;SDS011;11785;49.500;8.288;2023-05-10T10:14:02;2.67;;;1.02;;
23232;SDS011;11785;49.500;8.288;2023-05-10T10:16:29;1.35;;;1.20;;
23232;SDS011;11785;49.500;8.288;2023-05-10T10:18:56;1.42;;;1.10;;
23232;SDS011;11785;49.500;8.288;2023-05-10T10:21:22;3.05;;;1.00;;
23232;SDS011;11785;49.500;8.288;2023-05-10T10:23:48;7.95;;;0.90;;
23232;SDS011;11785;49.500;8.288;2023-05-10T10:26:13;1.30;;;1.10;;
23232;SDS011;11785;49.500;8.288;2023-05-10T10:28:48;4.25;;;1.00;;
23232;SDS011;11785;49.500;8.288;2023-05-10T10:34:25;0.75;;;0.70;;
23232;SDS011;11785;49.500;8.288;2023-05-10T10:36:54;1.00;;;0.63;;
23232;SDS011;11785;49.500;8.288;2023-05-10T10:39:21;1.17;;;0.60;;
23232;SDS011;11785;49.500;8.288;2023-05-10T10:41:57;1.20;;;0.63;;
23232;SDS011;11785;49.500;8.288;2023-05-10T10:44:33;3.05;;;0.80;;
23232;SDS011;11785;49.500;8.288;2023-05-10T10:47:07;1.50;;;0.70;;
23232;SDS011;11785;49.500;8.288;2023-05-10T10:50:03;1.00;;;0.80;;
23232;SDS011;11785;49.500;8.288;2023-05-10T10:52:31;0.85;;;0.85;;
23232;SDS011;11785;49.500;8.288;2023-05-10T10:57:27;1.42;;;1.00;;
23232;SDS011;11785;49.500;8.288;2023-05-10T11:05:42;1.83;;;0.75;;
23232;SDS011;11785;49.500;8.288;2023-05-10T11:08:11;1.52;;;0.60;;
23232;SDS011;11785;49.500;8.288;2023-05-10T11:10:38;0.68;;;0.68;;
23232;SDS011;11785;49.500;8.288;2023-05-10T11:13:06;2.55;;;0.88;;
23232;SDS011;11785;49.500;8.288;2023-05-10T11:15:40;0.77;;;0.60;;
23232;SDS011;11785;49.500;8.288;2023-05-10T11:20:52;2.08;;;0.60;;
23232;SDS011;11785;49.500;8.288;2023-05-10T11:23:23;2.08;;;0.50;;
23232;SDS011;11785;49.500;8.288;2023-05-10T11:25:48;2.38;;;0.82;;
23232;SDS011;11785;49.500;8.288;2023-05-10T11:28:16;2.40;;;0.60;;
23232;SDS011;11785;49.500;8.288;2023-05-10T11:30:44;2.40;;;0.60;;
23232;SDS011;11785;49.500;8.288;2023-05-10T11:33:14;2.30;;;0.80;;
23232;SDS011;11785;49.500;8.288;2023-05-10T11:35:41;1.73;;;0.60;;
23232;SDS011;11785;49.500;8.288;2023-05-10T11:38:08;2.60;;;0.75;;
23232;SDS011;11785;49.500;8.288;2023-05-10T11:40:37;4.75;;;0.60;;
23232;SDS011;11785;49.500;8.288;2023-05-10T11:43:04;2.08;;;0.75;;
23232;SDS011;11785;49.500;8.288;2023-05-10T11:45:34;3.50;;;0.63;;
23232;SDS011;11785;49.500;8.288;2023-05-10T11:48:00;0.75;;;0.65;;
23232;SDS011;11785;49.500;8.288;2023-05-10T11:50:27;3.95;;;0.75;;
23232;SDS011;11785;49.500;8.288;2023-05-10T11:52:53;2.85;;;0.65;;
23232;SDS011;11785;49.500;8.288;2023-05-10T11:55:22;4.30;;;0.65;;
23232;SDS011;11785;49.500;8.288;2023-05-10T11:57:52;2.38;;;0.63;;
23232;SDS011;11785;49.500;8.288;2023-05-10T12:00:19;0.75;;;0.60;;
23232;SDS011;11785;49.500;8.288;2023-05-10T12:02:45;3.33;;;0.75;;
23232;SDS011;11785;49.500;8.288;2023-05-10T12:05:11;1.40;;;0.75;;
23232;SDS011;11785;49.500;8.288;2023-05-10T12:07:37;1.52;;;0.75;;
23232;SDS011;11785;49.500;8.288;2023-05-10T12:10:06;1.65;;;0.68;;
23232;SDS011;11785;49.500;8.288;2023-05-10T12:12:43;7.15;;;0.75;;
23232;SDS011;11785;49.500;8.288;2023-05-10T12:15:19;0.60;;;0.50;;
23232;SDS011;11785;49.500;8.288;2023-05-10T12:17:46;5.82;;;0.77;;
23232;SDS011;11785;49.500;8.288;2023-05-10T12:20:13;2.75;;;1.05;;
23232;SDS011;11785;49.500;8.288;2023-05-10T12:22:40;1.60;;;0.70;;
23232;SDS011;11785;49.500;8.288;2023-05-10T12:25:08;2.75;;;0.73;;
23232;SDS011;11785;49.500;8.288;2023-05-10T12:27:35;1.67;;;0.65;;
23232;SDS011;11785;49.500;8.288;2023-05-10T12:30:01;6.30;;;1.23;;
23232;SDS011;11785;49.500;8.288;2023-05-10T12:32:37;4.82;;;0.70;;
23232;SDS011;11785;49.500;8.288;2023-05-10T12:35:06;3.38;;;0.77;;
23232;SDS011;11785;49.500;8.288;2023-05-10T12:37:33;1.75;;;0.70;;
23232;SDS011;11785;49.500;8.288;2023-05-10T12:40:04;3.13;;;0.80;;
23232;SDS011;11785;49.500;8.288;2023-05-10T12:42:31;4.10;;;0.80;;
23232;SDS011;11785;49.500;8.288;2023-05-10T12:44:57;3.58;;;0.70;;
23232;SDS011;11785;49.500;8.288;2023-05-10T12:47:23;2.20;;;0.70;;
23232;SDS011;11785;49.500;8.288;2023-05-10T12:49:48;3.50;;;0.63;;
23232;SDS011;11785;49.500;8.288;2023-05-10T12:52:14;2.03;;;0.60;;
23232;SDS011;11785;49.500;8.288;2023-05-10T12:54:39;5.55;;;0.60;;
23232;SDS011;11785;49.500;8.288;2023-05-10T12:57:05;1.55;;;0.70;;
23232;SDS011;11785;49.500;8.288;2023-05-10T12:59:30;1.30;;;0.50;;
23232;SDS011;11785;49.500;8.288;2023-05-10T13:01:57;1.65;;;0.57;;
23232;SDS011;11785;49.500;8.288;2023-05-10T13:04:22;1.55;;;0.60;;
23232;SDS011;11785;49.500;8.288;2023-05-10T13:06:48;4.18;;;0.80;;
23232;SDS011;11785;49.500;8.288;2023-05-10T13:09:14;1.30;;;0.60;;
23232;SDS011;11785;49.500;8.288;2023-05-10T13:11:40;2.30;;;0.90;;
23232;SDS011;11785;49.500;8.288;2023-05-10T13:14:06;3.10;;;0.60;;
23232;SDS011;11785;49.500;8.288;2023-05-10T13:16:31;2.72;;;0.47;;
23232;SDS011;11785;49.500;8.288;2023-05-10T13:18:57;2.90;;;0.75;;
23232;SDS011;11785;49.500;8.288;2023-05-10T13:21:23;4.20;;;0.57;;
23232;SDS011;11785;49.500;8.288;2023-05-10T13:23:50;0.85;;;0.40;;
23232;SDS011;11785;49.500;8.288;2023-05-10T13:26:15;4.85;;;0.65;;
23232;SDS011;11785;49.500;8.288;2023-05-10T13:28:41;0.30;;;0.30;;
23232;SDS011;11785;49.500;8.288;2023-05-10T13:31:07;1.45;;;0.50;;
23232;SDS011;11785;49.500;8.288;2023-05-10T13:33:32;3.50;;;0.45;;
23232;SDS011;11785;49.500;8.288;2023-05-10T13:35:58;0.95;;;0.43;;
23232;SDS011;11785;49.500;8.288;2023-05-10T13:38:23;2.05;;;0.50;;
23232;SDS011;11785;49.500;8.288;2023-05-10T13:40:49;0.98;;;0.40;;
23232;SDS011;11785;49.500;8.288;2023-05-10T13:43:17;1.08;;;0.57;;
23232;SDS011;11785;49.500;8.288;2023-05-10T13:45:43;2.75;;;0.30;;
23232;SDS011;11785;49.500;8.288;2023-05-10T13:48:12;0.50;;;0.35;;
23232;SDS011;11785;49.500;8.288;2023-05-10T13:50:37;1.33;;;0.50;;
23232;SDS011;11785;49.500;8.288;2023-05-10T13:53:03;0.65;;;0.30;;
23232;SDS011;11785;49.500;8.288;2023-05-10T13:55:29;2.10;;;0.50;;
23232;SDS011;11785;49.500;8.288;2023-05-10T13:57:54;1.65;;;0.70;;
23232;SDS011;11785;49.500;8.288;2023-05-10T14:00:20;2.88;;;0.30;;
23232;SDS011;11785;49.500;8.288;2023-05-10T14:02:45;0.55;;;0.40;;
23232;SDS011;11785;49.500;8.288;2023-05-10T14:05:11;3.28;;;0.50;;
23232;SDS011;11785;49.500;8.288;2023-05-10T14:07:37;1.50;;;0.50;;
23232;SDS011;11785;49.500;8.288;2023-05-10T14:10:02;1.77;;;0.40;;
23232;SDS011;11785;49.500;8.288;2023-05-10T14:12:28;1.40;;;0.45;;
23232;SDS011;11785;49.500;8.288;2023-05-10T14:14:55;1.27;;;0.47;;
23232;SDS011;11785;49.500;8.288;2023-05-10T14:17:20;1.23;;;0.40;;
23232;SDS011;11785;49.500;8.288;2023-05-10T14:19:47;3.38;;;0.40;;
23232;SDS011;11785;49.500;8.288;2023-05-10T14:22:12;2.15;;;0.50;;
23232;SDS011;11785;49.500;8.288;2023-05-10T14:24:38;0.68;;;0.35;;
23232;SDS011;11785;49.500;8.288;2023-05-10T14:27:03;1.55;;;0.52;;
23232;SDS011;11785;49.500;8.288;2023-05-10T14:29:29;1.80;;;0.50;;
23232;SDS011;11785;49.500;8.288;2023-05-10T14:31:55;2.50;;;0.50;;
23232;SDS011;11785;49.500;8.288;2023-05-10T14:34:20;0.57;;;0.35;;
23232;SDS011;11785;49.500;8.288;2023-05-10T14:36:46;2.03;;;0.50;;
23232;SDS011;11785;49.500;8.288;2023-05-10T14:39:11;1.38;;;0.22;;
23232;SDS011;11785;49.500;8.288;2023-05-10T14:41:38;0.93;;;0.40;;
23232;SDS011;11785;49.500;8.288;2023-05-10T14:44:06;2.92;;;0.40;;
23232;SDS011;11785;49.500;8.288;2023-05-10T14:46:31;1.05;;;0.57;;
23232;SDS011;11785;49.500;8.288;2023-05-10T14:48:57;0.40;;;0.38;;
23232;SDS011;11785;49.500;8.288;2023-05-10T14:51:23;2.65;;;0.40;;
23232;SDS011;11785;49.500;8.288;2023-05-10T14:53:48;8.75;;;0.50;;
23232;SDS011;11785;49.500;8.288;2023-05-10T14:56:14;1.48;;;0.32;;
23232;SDS011;11785;49.500;8.288;2023-05-10T14:58:40;0.68;;;0.40;;
23232;SDS011;11785;49.500;8.288;2023-05-10T15:01:05;0.75;;;0.50;;
23232;SDS011;11785;49.500;8.288;2023-05-10T15:03:31;1.15;;;0.55;;
23232;SDS011;11785;49.500;8.288;2023-05-10T15:05:56;0.50;;;0.50;;
23232;SDS011;11785;49.500;8.288;2023-05-10T15:08:23;0.75;;;0.50;;
23232;SDS011;11785;49.500;8.288;2023-05-10T15:10:49;0.63;;;0.40;;
23232;SDS011;11785;49.500;8.288;2023-05-10T15:13:17;1.27;;;0.40;;
23232;SDS011;11785;49.500;8.288;2023-05-10T15:15:43;0.40;;;0.40;;
23232;SDS011;11785;49.500;8.288;2023-05-10T15:18:08;1.92;;;0.65;;
23232;SDS011;11785;49.500;8.288;2023-05-10T15:20:35;2.00;;;0.50;;
23232;SDS011;11785;49.500;8.288;2023-05-10T15:23:01;0.88;;;0.40;;
23232;SDS011;11785;49.500;8.288;2023-05-10T15:25:26;0.98;;;0.47;;
23232;SDS011;11785;49.500;8.288;2023-05-10T15:27:53;0.68;;;0.30;;